createdAt,value
2022-09-10T03:00:39.304Z,2.10
2022-09-10T03:06:00.053Z,1.70
2022-09-10T03:11:23.967Z,1.70
2022-09-10T03:16:47.412Z,2.17
2022-09-10T03:22:08.395Z,1.75
2022-09-10T03:27:30.956Z,1.95
2022-09-10T03:32:53.139Z,2.20
2022-09-10T03:38:14.687Z,2.35
2022-09-10T03:49:02.482Z,2.17
2022-09-10T03:54:24.261Z,1.90
2022-09-10T03:59:46.047Z,2.30
2022-09-10T04:05:08.163Z,1.85
2022-09-10T04:10:31.323Z,1.85
2022-09-10T04:15:53.283Z,2.08
2022-09-10T04:21:15.761Z,1.70
2022-09-10T04:26:36.979Z,1.95
2022-09-10T04:31:59.433Z,1.98
2022-09-10T04:37:24.564Z,1.55
2022-09-10T04:42:48.551Z,2.10
2022-09-10T04:48:10.532Z,1.98
2022-09-10T04:53:34.375Z,1.73
2022-09-10T04:58:56.321Z,1.90
2022-09-10T05:04:17.420Z,2.10
2022-09-10T05:09:38.669Z,1.80
2022-09-10T05:15:00.146Z,1.95
2022-09-10T05:20:27.792Z,1.90
2022-09-10T05:25:50.382Z,1.73
2022-09-10T05:31:12.834Z,1.90
2022-09-10T05:36:36.269Z,1.98
2022-09-10T05:41:57.872Z,2.00
2022-09-10T05:47:19.402Z,2.67
2022-09-10T05:52:40.403Z,2.45
2022-09-10T05:58:03.546Z,2.53
2022-09-10T06:03:24.749Z,3.08
2022-09-10T06:08:52.271Z,2.83
2022-09-10T06:14:27.164Z,3.17
2022-09-10T06:25:12.789Z,3.00
2022-09-10T06:30:35.277Z,2.50
2022-09-10T06:36:01.633Z,2.50
2022-09-10T06:41:23.321Z,2.13
2022-09-10T06:52:45.187Z,2.88
2022-09-10T06:58:08.159Z,2.20
2022-09-10T07:03:31.367Z,2.30
2022-09-10T07:08:57.030Z,3.10
2022-09-10T07:14:18.656Z,2.03
2022-09-10T07:19:40.714Z,1.83
2022-09-10T07:25:13.331Z,2.05
2022-09-10T07:30:50.292Z,2.00
2022-09-10T07:36:12.591Z,2.40
2022-09-10T07:41:34.974Z,2.50
2022-09-10T07:46:57.485Z,1.67
2022-09-10T07:52:19.225Z,1.90
2022-09-10T07:57:45.521Z,1.70
2022-09-10T08:03:06.597Z,1.90
2022-09-10T08:08:33.954Z,1.50
2022-09-10T08:13:56.855Z,1.90
2022-09-10T08:19:21.623Z,1.50
2022-09-10T08:24:43.769Z,1.50
2022-09-10T08:30:05.787Z,1.52
2022-09-10T08:35:27.594Z,1.55
2022-09-10T08:40:49.043Z,1.83
2022-09-10T08:46:20.266Z,1.45
2022-09-10T08:51:54.162Z,1.60
2022-09-10T08:57:28.221Z,1.70
2022-09-10T09:02:52.332Z,1.38
2022-09-10T09:08:21.819Z,1.30
2022-09-10T09:13:56.430Z,1.33
2022-09-10T09:19:34.075Z,1.27
2022-09-10T09:25:00.731Z,1.27
2022-09-10T09:30:33.558Z,1.17
2022-09-10T09:36:00.725Z,1.10
2022-09-10T09:41:51.412Z,0.87
2022-09-10T09:47:13.117Z,1.20
2022-09-10T09:52:38.535Z,1.20
2022-09-10T09:58:24.419Z,1.30
2022-09-10T10:03:51.700Z,0.90
2022-09-10T10:09:21.189Z,1.08
2022-09-10T10:14:43.452Z,1.00
2022-09-10T10:20:13.527Z,1.10
2022-09-10T10:25:41.322Z,0.90
2022-09-10T10:31:04.741Z,1.02
2022-09-10T10:36:31.867Z,1.17
2022-09-10T10:47:29.241Z,1.20
2022-09-10T10:52:58.768Z,1.05
2022-09-10T10:58:29.629Z,1.20
2022-09-10T11:03:53.523Z,1.10
2022-09-10T11:09:39.117Z,1.02
2022-09-10T11:15:28.904Z,0.95
2022-09-10T11:21:15.292Z,0.90
2022-09-10T11:26:47.462Z,1.10
2022-09-10T11:32:16.778Z,1.10
2022-09-10T11:37:56.557Z,0.98
2022-09-10T11:43:36.654Z,1.30
2022-09-10T11:49:09.204Z,0.70
2022-09-10T11:54:34.470Z,1.05
2022-09-10T12:00:17.026Z,0.90
2022-09-10T12:05:50.278Z,1.10
2022-09-10T12:11:35.371Z,1.00
2022-09-10T12:17:18.622Z,0.95
2022-09-10T12:22:41.823Z,1.20
2022-09-10T12:28:24.896Z,1.02
2022-09-10T12:33:45.442Z,1.30
2022-09-10T12:39:25.151Z,1.00
2022-09-10T12:44:46.643Z,0.90
2022-09-10T12:50:20.490Z,0.98
2022-09-10T12:55:57.766Z,0.90
2022-09-10T13:01:30.104Z,1.30
2022-09-10T13:06:54.591Z,1.00
2022-09-10T13:12:24.523Z,1.27
2022-09-10T13:17:48.852Z,1.85
2022-09-10T13:23:09.657Z,1.00
2022-09-10T13:28:30.665Z,1.15
2022-09-10T13:33:52.125Z,1.05
2022-09-10T13:39:34.580Z,1.17
2022-09-10T13:44:55.532Z,1.00
2022-09-10T13:50:18.968Z,1.20
2022-09-10T13:55:48.976Z,1.35
2022-09-10T14:01:09.844Z,1.25
2022-09-10T14:06:30.603Z,2.03
2022-09-10T14:11:51.762Z,1.48
2022-09-10T14:17:27.395Z,1.00
2022-09-10T14:22:53.416Z,0.77
2022-09-10T14:28:26.959Z,0.80
2022-09-10T14:33:48.131Z,1.52
2022-09-10T14:39:15.011Z,1.30
2022-09-10T14:44:41.257Z,1.20
2022-09-10T14:50:25.744Z,0.75
2022-09-10T14:55:46.667Z,0.90
2022-09-10T15:01:09.292Z,1.25
2022-09-10T15:06:31.630Z,0.80
2022-09-10T15:12:36.210Z,1.00
2022-09-10T15:18:28.058Z,1.00
2022-09-10T15:30:37.194Z,0.90
2022-09-10T15:36:27.653Z,1.17
2022-09-10T15:42:21.273Z,1.40
2022-09-10T16:06:27.366Z,1.50
2022-09-10T16:11:49.892Z,2.33
2022-09-10T16:17:11.370Z,1.45
2022-09-10T16:22:32.600Z,2.08
2022-09-10T16:27:53.790Z,1.52
2022-09-10T16:33:14.480Z,2.08
2022-09-10T16:38:35.523Z,1.98
2022-09-10T16:44:00.499Z,1.75
2022-09-10T16:49:21.402Z,2.40
2022-09-10T16:54:42.116Z,2.13
2022-09-10T17:00:06.845Z,2.25
2022-09-10T17:05:28.886Z,2.40
2022-09-10T17:10:50.120Z,3.53
2022-09-10T17:16:26.305Z,4.80
2022-09-10T17:21:51.174Z,3.25
2022-09-10T17:27:12.276Z,4.35
2022-09-10T17:32:33.308Z,3.92
2022-09-10T17:37:54.002Z,2.85
2022-09-10T17:43:15.567Z,2.58
2022-09-10T17:48:38.000Z,2.95
2022-09-10T17:53:59.447Z,3.08
2022-09-10T17:59:21.870Z,5.35
2022-09-10T18:04:42.894Z,3.92
2022-09-10T18:10:04.861Z,3.58
2022-09-10T18:15:32.738Z,3.17
2022-09-10T18:20:53.752Z,3.35
2022-09-10T18:26:16.357Z,3.25
2022-09-10T18:31:40.079Z,3.47
2022-09-10T18:37:02.444Z,2.72
2022-09-10T18:42:23.562Z,2.13
2022-09-10T18:47:45.464Z,2.30
2022-09-10T18:53:06.367Z,2.50
2022-09-10T18:58:27.652Z,3.65
2022-09-10T19:03:49.060Z,3.92
2022-09-10T19:09:13.522Z,2.83
2022-09-10T19:14:35.809Z,1.70
2022-09-10T19:19:57.919Z,1.73
2022-09-10T19:25:18.801Z,1.95
2022-09-10T19:30:40.120Z,2.10
2022-09-10T19:36:05.378Z,2.05
2022-09-10T19:41:27.060Z,2.63
2022-09-10T19:46:47.891Z,2.50
2022-09-10T19:52:10.968Z,2.30
2022-09-10T19:57:33.608Z,2.47
2022-09-10T20:02:54.386Z,2.63
2022-09-10T20:08:15.546Z,3.70
2022-09-10T20:13:36.919Z,2.60
2022-09-10T20:18:58.055Z,2.47
2022-09-10T20:24:19.272Z,2.13
2022-09-10T20:29:40.099Z,2.10
2022-09-10T20:35:02.764Z,2.58
2022-09-10T20:40:23.848Z,2.80
2022-09-10T20:45:44.693Z,2.20
2022-09-10T20:56:26.553Z,2.95
2022-09-10T21:01:47.578Z,2.30
2022-09-10T21:07:09.058Z,3.25
2022-09-10T21:12:30.267Z,2.25
2022-09-10T21:23:11.870Z,2.75
2022-09-10T21:28:32.584Z,2.95
2022-09-10T21:39:17.440Z,3.20
2022-09-10T21:44:38.546Z,3.90
2022-09-10T21:49:59.502Z,3.78
